Time;durP1;ratioP1;P1;durP2;ratioP2;P2;SDS_P1;SDS_P2;PMS_P1;PMS_P2;Temp;Humidity;BMP_temperature;BMP_pressure;BME280_temperature;BME280_humidity;BME280_pressure;Samples;Min_cycle;Max_cycle;Signal;HPM_P1;HPM_P2
2021/06/29 00:02:27;;;;;;;3.55;1.90;;;;;;;12.55;89.96;90815.50;5014837;28;20025;-87
2021/06/29 00:05:07;;;;;;;2.55;1.70;;;;;;;12.58;90.07;90814.78;4999173;28;20055;-87
2021/06/29 00:07:51;;;;;;;2.30;1.90;;;;;;;12.75;89.38;90816.25;4998444;28;20031;-87
2021/06/29 00:10:32;;;;;;;4.22;2.40;;;;;;;12.65;89.47;90810.50;5032445;28;20494;-87
2021/06/29 00:12:59;;;;;;;2.80;2.10;;;;;;;12.66;89.57;90825.06;5032314;28;20060;-87
2021/06/29 00:15:35;;;;;;;3.88;2.17;;;;;;;12.62;90.03;90836.56;4989900;28;20021;-87
2021/06/29 00:18:10;;;;;;;2.70;2.15;;;;;;;12.77;89.79;90840.97;4980152;28;20467;-87
2021/06/29 00:20:44;;;;;;;;;;;;;;;12.74;89.83;90843.53;4996007;28;20033;-87
2021/06/29 00:23:23;;;;;;;4.23;2.63;;;;;;;12.69;90.24;90844.56;5029054;28;19968;-86
2021/06/29 00:25:51;;;;;;;3.13;2.50;;;;;;;12.62;89.88;90832.09;4988856;28;20044;-87
2021/06/29 00:28:30;;;;;;;5.50;2.45;;;;;;;12.60;90.71;90843.97;4978804;28;20045;-86
2021/06/29 00:31:02;;;;;;;2.90;2.50;;;;;;;12.61;90.59;90850.72;5003340;28;20026;-87
2021/06/29 00:33:37;;;;;;;7.07;3.10;;;;;;;12.68;90.66;90845.63;5015162;28;20030;-87
2021/06/29 00:36:15;;;;;;;4.72;2.35;;;;;;;12.70;91.00;90848.69;5015102;28;20029;-86
2021/06/29 00:38:52;;;;;;;3.78;2.25;;;;;;;12.70;90.53;90827.75;5015164;28;20063;-86
2021/06/29 00:41:28;;;;;;;2.72;2.08;;;;;;;12.67;90.89;90820.59;4996465;28;20029;-87
2021/06/29 00:44:12;;;;;;;3.10;2.28;;;;;;;12.69;90.81;90823.63;4994995;28;20026;-87
2021/06/29 00:46:55;;;;;;;2.80;2.30;;;;;;;12.67;91.23;90833.66;4979465;28;20479;-87
2021/06/29 00:49:31;;;;;;;2.50;2.07;;;;;;;12.73;90.78;90829.69;5012329;28;20100;-87
2021/06/29 00:52:08;;;;;;;3.40;2.55;;;;;;;12.74;90.62;90828.59;4996387;28;20014;-87
2021/06/29 00:54:38;;;;;;;2.85;2.50;;;;;;;12.73;91.31;90836.78;4978791;28;20026;-87
2021/06/29 00:57:08;;;;;;;5.47;2.15;;;;;;;12.76;90.94;90839.47;5012378;28;20032;-87
2021/06/29 00:59:36;;;;;;;2.70;2.08;;;;;;;12.79;91.07;90835.41;4994926;28;20535;-87
2021/06/29 01:02:05;;;;;;;2.60;2.30;;;;;;;12.79;91.44;90830.16;5012204;28;20108;-87
2021/06/29 01:04:34;;;;;;;2.47;2.05;;;;;;;12.73;91.20;90829.69;5012075;28;20105;-87
2021/06/29 01:07:06;;;;;;;4.35;2.45;;;;;;;12.73;91.32;90815.88;4978866;28;20579;-87
2021/06/29 01:09:36;;;;;;;2.90;2.00;;;;;;;12.77;91.14;90796.53;4979005;28;20030;-87
2021/06/29 01:12:18;;;;;;;3.15;2.47;;;;;;;12.66;91.47;90785.84;4982626;28;20022;-87
2021/06/29 01:14:55;;;;;;;2.65;2.40;;;;;;;12.68;91.46;90783.66;4998904;28;20492;-87
2021/06/29 01:17:28;;;;;;;2.42;2.22;;;;;;;12.70;91.46;90804.22;5015056;28;20028;-87
2021/06/29 01:20:12;;;;;;;2.30;2.10;;;;;;;12.75;91.08;90824.88;5014925;28;20080;-88
2021/06/29 01:22:50;;;;;;;3.25;2.00;;;;;;;12.75;91.08;90830.09;4998855;28;20172;-87
2021/06/29 01:25:26;;;;;;;4.07;1.80;;;;;;;12.82;90.40;90840.69;4999801;28;20046;-87
2021/06/29 01:31:02;;;;;;;2.45;1.98;;;;;;;12.82;90.87;90848.53;5000255;28;20093;-85
2021/06/29 01:33:38;;;;;;;1.65;1.55;;;;;;;12.96;89.49;90848.06;5001281;28;20026;-87
2021/06/29 01:36:21;;;;;;;1.70;1.60;;;;;;;12.94;89.21;90849.53;5014646;28;20112;-87
2021/06/29 01:38:57;;;;;;;2.08;1.60;;;;;;;12.99;88.14;90859.72;5027271;28;20021;-87
2021/06/29 01:41:33;;;;;;;2.38;1.55;;;;;;;13.01;88.17;90873.97;5017930;28;20116;-87
2021/06/29 01:44:11;;;;;;;1.52;1.38;;;;;;;13.01;88.11;90873.22;5002535;28;20108;-87
2021/06/29 01:46:49;;;;;;;2.00;1.40;;;;;;;12.91;88.42;90874.50;5003017;28;20023;-87
2021/06/29 01:49:30;;;;;;;1.70;1.40;;;;;;;12.95;88.39;90874.59;5002670;28;20083;-85
2021/06/29 01:52:07;;;;;;;1.92;1.50;;;;;;;12.94;88.22;90857.38;5002601;28;20394;-88
2021/06/29 01:54:50;;;;;;;2.30;1.63;;;;;;;12.85;89.62;90828.81;5002642;28;20049;-87
2021/06/29 01:57:30;;;;;;;2.00;1.48;;;;;;;12.77;89.66;90801.75;5019413;28;20032;-86
2021/06/29 02:00:08;;;;;;;2.30;1.50;;;;;;;12.79;89.84;90794.34;5017755;28;20479;-86
2021/06/29 02:02:41;;;;;;;1.73;1.38;;;;;;;12.74;90.52;90802.44;5012444;28;20038;-87
2021/06/29 02:05:17;;;;;;;2.67;1.30;;;;;;;12.81;90.29;90792.13;5015088;28;20033;-86
2021/06/29 02:07:52;;;;;;;4.75;1.83;;;;;;;12.71;91.08;90791.91;4997943;28;20492;-86
2021/06/29 02:10:28;;;;;;;2.42;1.70;;;;;;;12.64;90.92;90779.44;4998781;28;20076;-86
2021/06/29 02:13:07;;;;;;;2.38;1.60;;;;;;;12.70;91.31;90779.94;4998494;28;20025;-88
2021/06/29 02:15:48;;;;;;;1.98;1.45;;;;;;;12.65;90.95;90744.38;4998034;28;20475;-87
2021/06/29 02:18:25;;;;;;;2.72;1.58;;;;;;;12.62;90.72;90729.38;4999075;28;20032;-87
2021/06/29 02:20:56;;;;;;;2.20;1.60;;;;;;;12.52;90.86;90720.22;4981452;28;20112;-87
2021/06/29 02:23:31;;;;;;;2.38;1.42;;;;;;;12.62;90.55;90695.41;5014570;28;20038;-86
2021/06/29 02:26:06;;;;;;;1.80;1.50;;;;;;;12.66;90.57;90691.75;5013999;28;20025;-86
2021/06/29 02:29:18;;;;;;;3.13;1.70;;;;;;;12.51;90.90;90699.66;5005755;23;20496;-86
2021/06/29 02:31:56;;;;;;;1.67;1.55;;;;;;;12.49;91.15;90673.13;4998371;28;20089;-87
2021/06/29 02:34:36;;;;;;;1.65;1.50;;;;;;;12.56;90.80;90660.94;4998415;28;20026;-85
2021/06/29 02:37:13;;;;;;;4.00;1.60;;;;;;;12.54;90.36;90662.38;4998466;28;20026;-85
2021/06/29 02:39:53;;;;;;;2.30;1.50;;;;;;;12.63;89.43;90655.06;4996963;28;20052;-87
2021/06/29 02:42:31;;;;;;;2.33;1.60;;;;;;;12.79;89.04;90606.06;4983318;28;20029;-87
2021/06/29 02:45:11;;;;;;;3.28;1.80;;;;;;;12.63;89.83;90581.88;4982765;28;20026;-86
2021/06/29 02:47:48;;;;;;;3.58;1.75;;;;;;;12.48;90.37;90607.03;4982252;28;20030;-87
2021/06/29 02:50:27;;;;;;;1.88;1.60;;;;;;;12.47;91.14;90620.41;4963729;28;20047;-86
2021/06/29 02:53:11;;;;;;;2.97;1.50;;;;;;;12.51;91.42;90644.75;4943819;28;20019;-87
2021/06/29 02:55:49;;;;;;;3.10;1.73;;;;;;;12.69;90.45;90666.78;4943220;28;20469;-87
2021/06/29 02:58:27;;;;;;;2.42;1.67;;;;;;;12.79;89.93;90697.59;4959104;28;20563;-87
2021/06/29 03:01:02;;;;;;;3.38;1.67;;;;;;;12.62;91.52;90698.00;4967209;28;20396;-87
2021/06/29 03:03:42;;;;;;;3.53;1.92;;;;;;;12.72;89.74;90673.94;4972851;28;20037;-86
2021/06/29 03:06:14;;;;;;;2.80;1.75;;;;;;;12.84;89.57;90668.53;4981562;28;20447;-87
2021/06/29 03:08:53;;;;;;;2.25;1.52;;;;;;;12.84;89.16;90671.16;4981795;28;20057;-86
2021/06/29 03:11:27;;;;;;;2.88;1.60;;;;;;;12.74;89.66;90676.19;5014948;28;20021;-86
2021/06/29 03:14:12;;;;;;;2.92;1.70;;;;;;;12.56;90.52;90683.69;4981686;28;20026;-88
2021/06/29 03:16:45;;;;;;;2.85;1.88;;;;;;;12.49;91.22;90683.56;4965673;28;20026;-87
2021/06/29 03:19:22;;;;;;;2.47;1.50;;;;;;;12.56;91.44;90702.00;4981091;28;20092;-86
2021/06/29 03:22:04;;;;;;;3.88;1.60;;;;;;;12.58;91.41;90694.56;4981729;28;20087;-87
2021/06/29 03:24:46;;;;;;;2.80;1.60;;;;;;;12.66;91.39;90683.16;4998076;28;20026;-87
2021/06/29 03:27:32;;;;;;;2.97;1.52;;;;;;;12.63;90.60;90678.59;4962561;28;20026;-87
2021/06/29 03:30:07;;;;;;;2.15;1.30;;;;;;;12.68;90.33;90694.00;4995766;28;20038;-86
2021/06/29 03:32:46;;;;;;;2.25;1.40;;;;;;;12.61;90.17;90683.41;4957829;28;20038;-87
2021/06/29 03:35:21;;;;;;;1.60;1.40;;;;;;;12.66;90.49;90686.50;4959886;28;20077;-87
2021/06/29 03:37:57;;;;;;;3.58;1.35;;;;;;;12.66;90.19;90688.38;4969535;28;20034;-87
2021/06/29 03:40:43;;;;;;;2.45;1.50;;;;;;;12.62;90.61;90690.16;4992522;28;20029;-89
2021/06/29 03:43:23;;;;;;;2.40;1.40;;;;;;;12.70;90.78;90686.56;5021664;28;20021;-87
2021/06/29 03:46:00;;;;;;;2.72;1.60;;;;;;;12.67;90.76;90682.78;5003072;28;20492;-86
2021/06/29 03:48:41;;;;;;;1.92;1.67;;;;;;;12.86;89.83;90687.25;4980817;28;20412;-87
2021/06/29 03:51:17;;;;;;;2.58;2.00;;;;;;;12.83;89.36;90666.28;4997697;28;20021;-87
2021/06/29 03:53:51;;;;;;;2.58;1.90;;;;;;;12.85;89.62;90662.19;4981249;28;20030;-86
2021/06/29 03:56:30;;;;;;;2.40;1.95;;;;;;;12.86;89.53;90668.94;4963821;28;20022;-86
2021/06/29 03:59:18;;;;;;;2.95;2.28;;;;;;;12.74;90.15;90653.41;4980337;28;20057;-87
2021/06/29 04:01:54;;;;;;;3.40;2.20;;;;;;;12.61;90.81;90663.25;4996672;28;20034;-87
2021/06/29 04:04:33;;;;;;;3.50;1.88;;;;;;;12.65;90.89;90658.88;4995961;28;20026;-87
2021/06/29 04:07:09;;;;;;;2.40;2.05;;;;;;;12.63;90.87;90660.31;4980753;28;20026;-86
2021/06/29 04:09:48;;;;;;;2.60;2.15;;;;;;;12.74;90.24;90661.25;4979505;28;20437;-87
2021/06/29 04:12:17;;;;;;;2.50;2.30;;;;;;;12.78;90.25;90658.69;4980282;28;20022;-87
2021/06/29 04:14:58;;;;;;;2.83;2.50;;;;;;;12.72;91.94;90662.69;4979333;28;20037;-87
2021/06/29 04:17:31;;;;;;;2.05;1.85;;;;;;;12.86;89.37;90663.72;4994872;28;20022;-87
2021/06/29 04:20:11;;;;;;;2.83;2.00;;;;;;;12.92;88.92;90666.78;4963386;28;20030;-87
2021/06/29 04:22:47;;;;;;;3.17;2.00;;;;;;;12.81;89.93;90666.59;4980393;28;20022;-87
2021/06/29 04:25:20;;;;;;;3.92;2.40;;;;;;;12.72;90.48;90666.09;4977033;28;20377;-87
2021/06/29 04:28:02;;;;;;;3.83;2.20;;;;;;;12.81;90.21;90665.84;4994659;28;20100;-87
2021/06/29 04:30:40;;;;;;;3.42;2.10;;;;;;;12.82;90.64;90668.09;4979021;28;20470;-87
2021/06/29 04:33:18;;;;;;;2.83;2.00;;;;;;;12.84;90.27;90678.25;4996134;28;20053;-87
2021/06/29 04:35:51;;;;;;;2.50;2.20;;;;;;;12.83;90.23;90674.13;4979716;28;20068;-87
2021/06/29 04:38:31;;;;;;;2.75;2.00;;;;;;;12.80;89.97;90675.56;4995382;28;20396;-88
2021/06/29 04:41:07;;;;;;;2.67;2.28;;;;;;;12.84;89.77;90679.00;4994120;28;20062;-87
2021/06/29 04:43:46;;;;;;;3.53;1.92;;;;;;;12.86;89.59;90671.56;5012486;28;20029;-88
2021/06/29 04:46:24;;;;;;;3.47;2.30;;;;;;;12.80;89.41;90654.63;4980420;28;20403;-87
2021/06/29 04:49:01;;;;;;;2.50;2.20;;;;;;;12.90;89.20;90659.31;4963574;28;20103;-87
2021/06/29 04:51:39;;;;;;;2.25;1.83;;;;;;;12.92;89.35;90654.47;4978708;28;20022;-86
2021/06/29 04:54:16;;;;;;;5.13;2.22;;;;;;;12.94;89.03;90645.53;4977940;28;20030;-87
2021/06/29 04:56:54;;;;;;;2.85;2.30;;;;;;;13.04;88.77;90631.84;4978795;28;20037;-87
2021/06/29 04:59:26;;;;;;;3.08;2.10;;;;;;;13.10;88.29;90633.09;4995147;28;20025;-87
2021/06/29 05:02:04;;;;;;;3.03;2.05;;;;;;;12.99;88.63;90640.00;4995615;28;20026;-87
2021/06/29 05:04:48;;;;;;;2.88;1.90;;;;;;;12.87;88.47;90639.06;4963541;28;20068;-87
2021/06/29 05:07:27;;;;;;;2.50;1.88;;;;;;;12.97;88.53;90626.50;4996978;28;20024;-87
2021/06/29 05:10:06;;;;;;;2.67;2.10;;;;;;;13.01;88.53;90635.19;4978568;28;20411;-87
2021/06/29 05:12:36;;;;;;;4.97;2.50;;;;;;;12.86;88.84;90627.09;4979209;28;20025;-87
2021/06/29 05:15:11;;;;;;;3.58;1.85;;;;;;;12.81;88.26;90624.00;4978830;28;20141;-86
2021/06/29 05:17:46;;;;;;;4.40;1.73;;;;;;;12.87;87.83;90627.88;4979468;28;20040;-87
2021/06/29 05:20:29;;;;;;;2.35;1.88;;;;;;;12.99;87.47;90634.78;4979305;28;20030;-87
2021/06/29 05:23:05;;;;;;;3.05;1.77;;;;;;;12.91;87.72;90628.66;4946351;28;20403;-87
2021/06/29 05:25:32;;;;;;;2.10;1.90;;;;;;;12.86;87.46;90628.94;4970066;28;20672;-88
2021/06/29 05:28:01;;;;;;;3.03;2.15;;;;;;;12.79;88.16;90634.84;4958285;28;20034;-87
2021/06/29 05:30:33;;;;;;;2.17;1.65;;;;;;;12.79;88.72;90636.66;4942278;28;20069;-87
2021/06/29 05:33:01;;;;;;;3.50;2.10;;;;;;;13.02;88.10;90644.53;4945373;28;20030;-87
2021/06/29 05:35:34;;;;;;;2.85;1.90;;;;;;;13.00;87.67;90638.88;4993997;28;20022;-87
2021/06/29 05:38:00;;;;;;;3.30;2.08;;;;;;;12.89;87.53;90628.25;4979366;28;20072;-87
2021/06/29 05:40:29;;;;;;;4.03;2.42;;;;;;;12.90;88.38;90627.91;4977127;28;20487;-87
2021/06/29 05:42:56;;;;;;;3.10;2.20;;;;;;;13.00;87.06;90620.59;4977483;28;20432;-88
2021/06/29 05:45:22;;;;;;;3.78;2.00;;;;;;;13.06;88.12;90621.81;4961810;28;20026;-86
2021/06/29 05:47:49;;;;;;;4.70;2.40;;;;;;;13.00;87.55;90631.03;4959336;28;20106;-87
2021/06/29 05:50:21;;;;;;;2.92;2.20;;;;;;;12.99;87.57;90624.31;4959069;28;20114;-88
2021/06/29 05:52:49;;;;;;;2.25;2.05;;;;;;;13.05;86.36;90615.81;4923612;28;20018;-87
2021/06/29 05:55:16;;;;;;;3.75;2.30;;;;;;;12.97;87.02;90611.59;4941799;28;20031;-86
2021/06/29 05:57:45;;;;;;;3.22;2.30;;;;;;;12.97;87.74;90622.06;4996880;28;20080;-87
2021/06/29 06:00:16;;;;;;;2.65;2.30;;;;;;;13.02;87.25;90624.38;4997066;28;20542;-87
2021/06/29 06:02:43;;;;;;;3.97;2.33;;;;;;;13.04;87.48;90619.56;4996436;28;20088;-87
2021/06/29 06:05:09;;;;;;;3.22;2.20;;;;;;;13.02;87.42;90623.63;4964936;28;20026;-87
2021/06/29 06:07:44;;;;;;;3.78;2.05;;;;;;;13.19;86.78;90622.41;4986896;28;20026;-87
2021/06/29 06:10:11;;;;;;;3.35;2.00;;;;;;;13.16;86.95;90613.38;4979767;28;20462;-86
2021/06/29 06:12:43;;;;;;;2.78;2.08;;;;;;;13.29;85.86;90608.75;4966570;28;20032;-87
2021/06/29 06:15:14;;;;;;;3.47;2.30;;;;;;;13.27;86.03;90605.72;4980419;28;20049;-86
2021/06/29 06:17:49;;;;;;;3.17;2.10;;;;;;;13.26;86.08;90607.59;4980545;28;20026;-86
2021/06/29 06:20:15;;;;;;;1.90;1.70;;;;;;;13.40;86.05;90612.28;4981958;28;20053;-87
2021/06/29 06:22:48;;;;;;;3.22;2.10;;;;;;;13.39;85.08;90615.97;5000732;28;20061;-87
2021/06/29 06:25:15;;;;;;;2.97;1.75;;;;;;;13.44;85.21;90617.56;5006066;28;20026;-87
2021/06/29 06:27:46;;;;;;;3.03;1.80;;;;;;;13.59;84.73;90617.41;4971494;28;20412;-86
2021/06/29 06:30:12;;;;;;;2.38;1.70;;;;;;;13.69;83.68;90613.44;4995770;28;20034;-87
2021/06/29 06:32:38;;;;;;;1.88;1.40;;;;;;;13.64;83.27;90608.50;4947043;28;20041;-86
2021/06/29 06:35:08;;;;;;;3.53;1.70;;;;;;;13.75;85.30;90608.66;4959707;28;20019;-87
2021/06/29 06:37:41;;;;;;;3.67;1.52;;;;;;;13.83;83.90;90600.53;4989142;28;20710;-88
2021/06/29 06:40:18;;;;;;;2.00;1.52;;;;;;;13.93;84.75;90603.66;5011048;28;20053;-90
2021/06/29 06:42:49;;;;;;;2.10;1.45;;;;;;;14.02;84.67;90612.72;5013704;28;20072;-87
2021/06/29 06:45:15;;;;;;;2.35;1.60;;;;;;;14.06;83.52;90607.53;4997769;28;20404;-87
2021/06/29 06:47:41;;;;;;;1.90;1.50;;;;;;;14.04;83.11;90602.66;4980354;28;20515;-88
2021/06/29 06:50:13;;;;;;;2.40;1.50;;;;;;;14.01;83.06;90605.97;4959281;28;20023;-87
2021/06/29 06:52:44;;;;;;;2.40;1.33;;;;;;;14.08;82.40;90597.47;4962198;28;20029;-88
2021/06/29 06:55:11;;;;;;;1.80;1.40;;;;;;;13.85;83.93;90593.06;4977870;28;20459;-88
2021/06/29 06:57:48;;;;;;;2.65;1.25;;;;;;;14.04;81.99;90594.78;4945896;28;20030;-88
2021/06/29 07:00:21;;;;;;;2.03;1.20;;;;;;;14.09;82.45;90597.09;4967189;28;20027;-89
2021/06/29 07:02:46;;;;;;;2.35;1.30;;;;;;;14.12;82.98;90587.78;4951696;28;20026;-91
2021/06/29 07:05:19;;;;;;;2.30;1.30;;;;;;;14.30;82.33;90593.22;4951241;28;20011;-89
2021/06/29 07:07:48;;;;;;;4.20;1.50;;;;;;;14.24;80.98;90589.38;4967511;28;20019;-87
2021/06/29 07:10:15;;;;;;;2.00;1.30;;;;;;;14.28;82.54;90585.72;4945864;28;20096;-87
2021/06/29 07:12:42;;;;;;;3.50;1.50;;;;;;;14.57;79.65;90591.28;4941737;28;20038;-88
2021/06/29 07:15:12;;;;;;;5.22;1.40;;;;;;;14.53;81.45;90595.75;4941824;28;20031;-88
2021/06/29 07:17:49;;;;;;;3.15;1.30;;;;;;;14.71;82.17;90593.28;4925956;28;20027;-87
2021/06/29 07:20:15;;;;;;;1.70;1.20;;;;;;;14.51;80.84;90574.38;4941463;28;20027;-87
2021/06/29 07:22:46;;;;;;;2.15;1.20;;;;;;;14.55;81.71;90577.78;5007955;28;20037;-85
2021/06/29 07:25:12;;;;;;;3.20;1.50;;;;;;;14.61;81.09;90576.34;4979628;28;20077;-86
2021/06/29 07:27:41;;;;;;;2.65;1.20;;;;;;;14.63;80.16;90574.13;4980364;28;20029;-86
2021/06/29 07:30:16;;;;;;;1.35;1.20;;;;;;;14.87;81.14;90566.81;4979662;28;20061;-88
2021/06/29 07:32:47;;;;;;;2.05;1.20;;;;;;;15.22;78.44;90567.09;4995576;28;20026;-87
2021/06/29 07:35:21;;;;;;;2.22;1.15;;;;;;;15.25;79.52;90574.25;4978293;28;20037;-86
2021/06/29 07:37:47;;;;;;;2.28;1.10;;;;;;;15.22;79.76;90572.34;4974204;28;20038;-87
2021/06/29 07:40:15;;;;;;;1.67;1.10;;;;;;;15.35;78.80;90556.31;4992593;28;20026;-86
2021/06/29 07:42:42;;;;;;;1.70;1.20;;;;;;;15.83;77.96;90556.25;4967426;28;20485;-86
2021/06/29 07:45:08;;;;;;;1.58;1.10;;;;;;;15.97;78.70;90553.69;4956621;28;20035;-87
2021/06/29 07:47:35;;;;;;;4.88;1.33;;;;;;;15.92;78.95;90552.16;4970343;28;20581;-86
2021/06/29 07:50:04;;;;;;;1.52;1.15;;;;;;;16.14;77.92;90554.88;4976618;28;20519;-87
2021/06/29 07:52:29;;;;;;;1.75;1.17;;;;;;;16.32;77.95;90547.78;4964492;28;20060;-87
2021/06/29 07:54:57;;;;;;;5.00;1.30;;;;;;;16.68;77.15;90542.63;4959871;28;20023;-86
2021/06/29 07:57:24;;;;;;;1.25;1.00;;;;;;;16.78;75.61;90541.91;4960223;28;20054;-88
2021/06/29 07:59:51;;;;;;;1.05;0.82;;;;;;;16.92;74.82;90535.91;4941737;28;20030;-87
2021/06/29 08:02:18;;;;;;;5.05;0.90;;;;;;;17.17;73.33;90528.00;4993369;28;20037;-87
2021/06/29 08:04:44;;;;;;;2.78;0.85;;;;;;;17.02;71.42;90529.91;4979940;28;20068;-87
2021/06/29 08:07:10;;;;;;;2.05;1.10;;;;;;;17.29;74.83;90519.75;4964172;28;20108;-87
2021/06/29 08:09:36;;;;;;;2.28;0.90;;;;;;;17.07;73.06;90518.25;4958257;28;20034;-87
2021/06/29 08:12:03;;;;;;;3.20;0.93;;;;;;;16.96;74.26;90512.97;4948448;28;20089;-87
2021/06/29 08:14:31;;;;;;;1.25;0.80;;;;;;;17.08;72.61;90503.97;4956445;28;20022;-86
2021/06/29 08:16:57;;;;;;;2.97;0.80;;;;;;;16.86;75.28;90508.47;4958295;28;20027;-86
2021/06/29 08:19:26;;;;;;;1.17;0.90;;;;;;;16.93;75.63;90508.47;4958036;28;20026;-87
2021/06/29 08:21:53;;;;;;;1.33;1.00;;;;;;;16.88;73.09;90511.47;4973436;28;20146;-86
2021/06/29 08:24:19;;;;;;;1.67;1.00;;;;;;;16.89;74.31;90505.06;4973768;28;20515;-87
2021/06/29 08:26:44;;;;;;;1.45;1.20;;;;;;;16.92;73.85;90497.19;4958018;28;20030;-88
2021/06/29 08:29:10;;;;;;;2.25;1.40;;;;;;;17.36;74.70;90485.50;5098294;23;20053;-86
2021/06/29 08:31:37;;;;;;;1.85;1.00;;;;;;;17.51;73.03;90480.94;4995761;28;20029;-87
2021/06/29 08:34:05;;;;;;;6.38;1.10;;;;;;;17.37;71.98;90471.19;4978967;28;20025;-86
2021/06/29 08:36:31;;;;;;;1.00;0.80;;;;;;;17.19;69.63;90467.84;4978765;28;20037;-88
2021/06/29 08:38:58;;;;;;;3.05;1.15;;;;;;;17.27;71.17;90469.31;5010319;28;20021;-87
2021/06/29 08:41:26;;;;;;;6.13;1.20;;;;;;;17.35;73.70;90470.06;5013525;28;20103;-89
2021/06/29 08:43:56;;;;;;;2.28;1.10;;;;;;;17.40;72.04;90461.78;4997488;28;20487;-89
2021/06/29 08:46:22;;;;;;;2.00;0.88;;;;;;;17.19;70.74;90452.78;4997680;28;20080;-88
2021/06/29 08:48:49;;;;;;;2.55;1.10;;;;;;;17.28;71.66;90449.00;5013030;28;20442;-86
2021/06/29 08:51:16;;;;;;;2.55;1.00;;;;;;;17.42;73.61;90446.34;4996558;28;20486;-87
2021/06/29 08:53:44;;;;;;;3.10;1.13;;;;;;;17.47;75.30;90437.31;4997404;28;20498;-88
2021/06/29 08:56:15;;;;;;;2.55;1.20;;;;;;;17.48;71.33;90442.19;4996738;28;20025;-88
2021/06/29 08:58:44;;;;;;;1.30;0.93;;;;;;;17.08;70.81;90436.25;4997559;28;20037;-88
2021/06/29 09:01:15;;;;;;;2.03;1.15;;;;;;;17.11;72.60;90440.03;4996283;28;20028;-87
2021/06/29 09:03:43;;;;;;;1.50;0.90;;;;;;;17.22;73.17;90434.75;5014274;28;20380;-89
2021/06/29 09:06:14;;;;;;;1.65;1.00;;;;;;;17.10;71.32;90438.50;4996523;28;20419;-86
2021/06/29 09:08:43;;;;;;;1.50;0.93;;;;;;;17.07;71.04;90434.78;4997076;28;20052;-86
2021/06/29 09:11:17;;;;;;;1.42;1.00;;;;;;;17.43;73.03;90432.78;5030535;28;20024;-85
2021/06/29 09:14:04;;;;;;;1.50;1.10;;;;;;;17.30;72.21;90425.69;5013363;28;20331;-87
2021/06/29 09:16:30;;;;;;;3.08;1.20;;;;;;;17.55;72.57;90420.34;5031070;28;20849;-87
2021/06/29 09:18:57;;;;;;;2.63;1.20;;;;;;;17.54;73.12;90413.56;5013854;28;20029;-89
2021/06/29 09:21:26;;;;;;;1.58;1.08;;;;;;;17.47;71.86;90409.09;5013227;28;20018;-88
2021/06/29 09:23:56;;;;;;;1.98;0.88;;;;;;;17.74;70.59;90416.50;4997898;28;20505;-87
2021/06/29 09:26:24;;;;;;;1.88;1.20;;;;;;;17.96;69.15;90404.00;5030733;28;20029;-89
2021/06/29 09:28:55;;;;;;;2.25;1.30;;;;;;;18.00;70.62;90408.13;4996689;28;20432;-88
2021/06/29 09:31:23;;;;;;;2.80;1.00;;;;;;;17.95;68.89;90407.75;5014652;28;20100;-87
2021/06/29 09:33:57;;;;;;;3.05;1.20;;;;;;;17.98;68.81;90409.63;5018092;28;20083;-86
2021/06/29 09:36:25;;;;;;;1.25;1.10;;;;;;;18.00;69.71;90407.38;5018126;28;20538;-86
2021/06/29 09:38:52;;;;;;;1.63;1.10;;;;;;;18.40;68.73;90405.97;4986199;28;20065;-87
2021/06/29 09:41:20;;;;;;;1.70;0.90;;;;;;;18.34;67.71;90413.56;5001436;28;20025;-88
2021/06/29 09:43:54;;;;;;;2.42;0.88;;;;;;;18.44;66.21;90416.50;5002330;28;20028;-86
2021/06/29 09:46:22;;;;;;;1.10;0.90;;;;;;;18.62;69.26;90420.53;5002348;28;20372;-88
2021/06/29 09:48:53;;;;;;;3.50;1.10;;;;;;;18.67;68.27;90418.63;5019788;28;20025;-86
2021/06/29 09:51:20;;;;;;;2.10;1.05;;;;;;;18.48;65.41;90409.31;5004034;28;20467;-87
2021/06/29 09:53:47;;;;;;;1.52;0.90;;;;;;;18.46;67.15;90406.34;5036827;28;20017;-88
2021/06/29 09:56:18;;;;;;;1.95;1.10;;;;;;;18.65;68.61;90397.88;4986799;28;20029;-88
2021/06/29 09:58:47;;;;;;;2.60;0.90;;;;;;;18.63;64.69;90400.91;4986367;28;20025;-87
2021/06/29 10:01:17;;;;;;;2.28;1.10;;;;;;;18.64;64.96;90394.50;5019357;28;20084;-88
2021/06/29 10:03:44;;;;;;;3.10;0.90;;;;;;;18.59;62.97;90407.38;5037204;28;20034;-85
2021/06/29 10:06:18;;;;;;;2.00;1.08;;;;;;;18.72;65.94;90397.09;5018815;28;20060;-86
2021/06/29 10:08:49;;;;;;;2.33;0.80;;;;;;;18.79;62.07;90404.97;5019453;28;20033;-88
2021/06/29 10:11:27;;;;;;;1.17;0.90;;;;;;;18.72;60.92;90413.69;5018459;28;20030;-88
2021/06/29 10:13:55;;;;;;;1.52;0.93;;;;;;;18.73;60.52;90414.44;5000757;28;20072;-87
2021/06/29 10:16:28;;;;;;;2.28;0.90;;;;;;;19.09;58.84;90410.34;5008508;28;20063;-88
2021/06/29 10:21:27;;;;;;;0.68;0.55;;;;;;;19.46;57.68;90422.03;5019075;28;20578;-87
2021/06/29 10:23:59;;;;;;;1.98;0.90;;;;;;;19.12;57.10;90432.59;5018334;28;20526;-86
2021/06/29 10:26:27;;;;;;;2.97;1.20;;;;;;;18.94;59.84;90440.69;5018684;28;20025;-86
2021/06/29 10:28:55;;;;;;;1.77;0.90;;;;;;;18.92;60.09;90435.03;5018893;28;20408;-87
2021/06/29 10:31:28;;;;;;;1.23;1.00;;;;;;;18.68;59.96;90449.88;5017650;28;20076;-87
2021/06/29 10:33:57;;;;;;;2.92;1.02;;;;;;;18.47;64.32;90442.88;5018249;28;20436;-86
2021/06/29 10:36:24;;;;;;;1.50;0.80;;;;;;;18.28;65.31;90444.13;5035131;28;20111;-87
2021/06/29 10:38:57;;;;;;;1.60;0.90;;;;;;;18.23;65.65;90435.84;5036263;28;20033;-86
2021/06/29 10:41:31;;;;;;;2.28;1.08;;;;;;;18.18;65.13;90444.19;5035487;28;20483;-86
2021/06/29 10:44:05;;;;;;;1.20;0.90;;;;;;;18.23;67.18;90444.50;5017477;28;20026;-87
2021/06/29 10:46:35;;;;;;;2.47;1.15;;;;;;;18.21;66.85;90443.41;5018500;28;20539;-87
2021/06/29 10:49:32;;;;;;;1.40;0.77;;;;;;;18.10;65.12;90449.50;5034249;28;20494;-86
2021/06/29 10:52:05;;;;;;;2.08;1.10;;;;;;;18.06;64.48;90448.78;5033925;28;20179;-86
2021/06/29 10:54:46;;;;;;;3.05;2.60;;;;;;;18.22;66.71;90456.22;5017250;28;20028;-87
2021/06/29 10:57:18;;;;;;;2.63;1.40;;;;;;;18.30;66.09;90449.00;5017972;28;20017;-87
2021/06/29 10:59:55;;;;;;;1.00;0.80;;;;;;;18.07;66.18;90460.06;5002369;28;20029;-86
2021/06/29 11:02:33;;;;;;;1.55;0.93;;;;;;;17.80;68.97;90465.06;5020004;28;20030;-87
2021/06/29 11:05:10;;;;;;;2.25;1.15;;;;;;;17.86;69.62;90495.16;5016080;28;20026;-88
2021/06/29 11:07:36;;;;;;;3.35;1.30;;;;;;;17.42;68.14;90549.06;5017993;28;20032;-87
2021/06/29 11:10:11;;;;;;;1.77;0.50;;;;;;;14.99;68.30;90584.94;5017916;28;20530;-85
2021/06/29 11:12:52;;;;;;;2.53;0.60;;;;;;;13.45;73.27;90601.50;5004502;28;20018;-85
2021/06/29 11:15:20;;;;;;;1.95;0.40;;;;;;;12.35;71.62;90595.94;4981925;28;20396;-87
2021/06/29 11:17:53;;;;;;;1.33;0.28;;;;;;;11.44;74.05;90599.72;4980162;28;20508;-87
2021/06/29 11:20:21;;;;;;;0.75;0.35;;;;;;;10.96;75.94;90586.00;4999857;28;20033;-87
2021/06/29 11:22:54;;;;;;;1.33;0.30;;;;;;;10.82;77.25;90590.88;4984710;28;20030;-87
2021/06/29 11:25:44;;;;;;;1.20;0.40;;;;;;;10.74;76.51;90599.59;5001825;28;20056;-87
2021/06/29 11:28:13;;;;;;;1.00;0.50;;;;;;;10.66;77.53;90598.69;5002649;28;20101;-86
2021/06/29 11:31:08;;;;;;;1.10;0.50;;;;;;;10.66;79.11;90577.06;4990061;28;20049;-86
2021/06/29 11:33:42;;;;;;;0.70;0.38;;;;;;;10.43;79.73;90576.91;4989328;28;20523;-88
2021/06/29 11:36:21;;;;;;;;;;;;;;;10.70;80.45;90562.28;4985441;28;20038;-87
2021/06/29 11:38:48;;;;;;;0.32;0.30;;;;;;;10.77;79.65;90559.84;4998393;28;20290;-88
2021/06/29 11:41:29;;;;;;;0.50;0.40;;;;;;;10.77;80.27;90573.63;4998568;28;20033;-87
2021/06/29 11:44:07;;;;;;;0.80;0.57;;;;;;;10.66;80.00;90561.44;4996678;28;20026;-88
2021/06/29 11:47:02;;;;;;;1.02;0.50;;;;;;;10.63;81.96;90564.72;5028653;28;20025;-88
2021/06/29 11:49:36;;;;;;;1.00;0.65;;;;;;;10.79;82.25;90549.84;5013070;28;20033;-88
2021/06/29 11:52:13;;;;;;;0.50;0.40;;;;;;;10.84;81.05;90557.41;4980635;28;20161;-88
2021/06/29 11:54:53;;;;;;;1.75;0.50;;;;;;;10.87;79.67;90546.28;4996591;28;20112;-88
2021/06/29 11:57:36;;;;;;;0.55;0.47;;;;;;;11.03;80.62;90553.38;4999129;28;20480;-88
2021/06/29 12:00:22;;;;;;;2.08;0.60;;;;;;;11.06;79.71;90550.06;4966066;28;20120;-88
2021/06/29 12:02:49;;;;;;;1.15;0.60;;;;;;;10.95;82.86;90562.84;4999841;28;20492;-88
2021/06/29 12:05:20;;;;;;;1.83;0.50;;;;;;;10.88;80.59;90547.81;4964515;28;20041;-88
2021/06/29 12:07:54;;;;;;;1.08;0.50;;;;;;;10.95;80.05;90552.44;4965069;28;20021;-88
2021/06/29 12:10:23;;;;;;;;;;;;;;;10.99;81.80;90580.09;4996392;28;20029;-88